Time;durP1;ratioP1;P1;durP2;ratioP2;P2;SDS_P1;SDS_P2;PMS_P1;PMS_P2;Temp;Humidity;BMP_temperature;BMP_pressure;BME280_temperature;BME280_humidity;BME280_pressure;Samples;Min_cycle;Max_cycle;Signal;HPM_P1;HPM_P2
2023/01/22 00:01:34;;;;;;;14.17;10.60;;;;;;;8.83;100.00;94300.34;5033196;28;20191;-56
2023/01/22 00:04:00;;;;;;;17.53;10.30;;;;;;;8.80;100.00;94295.53;5032784;28;20202;-54
2023/01/22 00:06:26;;;;;;;14.87;9.80;;;;;;;8.90;100.00;94319.19;5032975;28;20194;-52
2023/01/22 00:08:52;;;;;;;13.10;8.03;;;;;;;8.83;100.00;94315.56;5032597;28;20221;-52
2023/01/22 00:11:18;;;;;;;10.47;7.57;;;;;;;8.82;100.00;94316.50;5032954;28;20194;-53
2023/01/22 00:13:45;;;;;;;9.67;7.10;;;;;;;8.83;100.00;94340.91;5032744;28;20212;-52
2023/01/22 00:16:15;;;;;;;10.97;6.47;;;;;;;8.82;100.00;94332.50;5033219;28;20190;-54
2023/01/22 00:18:41;;;;;;;8.03;4.90;;;;;;;8.83;100.00;94340.91;5032754;28;20214;-53
2023/01/22 00:21:06;;;;;;;9.13;4.30;;;;;;;8.65;100.00;94339.88;5048388;28;20201;-53
2023/01/22 00:23:32;;;;;;;8.03;4.53;;;;;;;8.62;100.00;94304.69;5031460;28;20312;-55
2023/01/22 00:26:09;;;;;;;27.63;18.23;;;;;;;8.63;100.00;94268.25;5031635;28;20190;-56
2023/01/22 00:28:36;;;;;;;7.67;4.57;;;;;;;8.60;100.00;94283.72;5032957;28;20297;-53
2023/01/22 00:31:04;;;;;;;7.47;5.67;;;;;;;8.66;100.00;94258.69;5031575;28;20201;-53
2023/01/22 00:33:30;;;;;;;11.33;6.43;;;;;;;8.65;100.00;94257.09;5032733;28;20295;-53
2023/01/22 00:35:56;;;;;;;15.00;7.37;;;;;;;8.70;100.00;94254.16;5032610;28;20190;-53
2023/01/22 00:38:22;;;;;;;11.57;7.13;;;;;;;8.58;100.00;94245.06;5032812;28;20577;-56
2023/01/22 00:40:47;;;;;;;10.73;7.33;;;;;;;8.67;100.00;94260.28;5033022;28;20229;-55
2023/01/22 00:43:13;;;;;;;8.57;6.43;;;;;;;8.71;100.00;94283.63;5032304;28;20216;-54
2023/01/22 00:45:38;;;;;;;9.13;5.87;;;;;;;8.71;100.00;94299.66;5031070;28;20205;-54
2023/01/22 00:48:11;;;;;;;6.83;5.23;;;;;;;8.61;100.00;94311.47;5032255;28;20234;-57
2023/01/22 00:50:36;;;;;;;11.17;6.97;;;;;;;8.44;100.00;94286.75;5032359;28;20281;-55
2023/01/22 00:53:02;;;;;;;6.83;4.70;;;;;;;8.46;100.00;94282.34;5032324;28;20587;-53
2023/01/22 00:55:29;;;;;;;7.93;4.67;;;;;;;8.44;100.00;94296.88;5032338;28;20206;-54
2023/01/22 00:57:55;;;;;;;4.47;3.43;;;;;;;8.51;100.00;94325.00;5032346;28;20228;-54
2023/01/22 01:00:21;;;;;;;6.27;3.80;;;;;;;8.46;100.00;94331.25;5032409;28;20573;-53
2023/01/22 01:05:31;;;;;;;5.60;3.30;;;;;;;8.33;100.00;94332.38;5032626;28;20617;-55
2023/01/22 01:07:57;;;;;;;8.33;3.87;;;;;;;8.21;100.00;94311.38;5031768;28;20706;-54
2023/01/22 01:10:22;;;;;;;7.90;4.10;;;;;;;8.27;100.00;94330.34;5032191;28;20187;-54
2023/01/22 01:12:47;;;;;;;7.60;3.63;;;;;;;8.26;100.00;94334.59;5031843;28;20202;-52
2023/01/22 01:15:13;;;;;;;6.00;3.43;;;;;;;8.19;100.00;94320.81;5031977;28;20202;-54
2023/01/22 01:17:38;;;;;;;5.90;3.80;;;;;;;8.22;100.00;94322.31;5031981;28;20221;-55
2023/01/22 01:20:04;;;;;;;7.00;4.23;;;;;;;8.26;100.00;94316.09;5031925;28;20198;-58
2023/01/22 01:22:29;;;;;;;5.27;3.80;;;;;;;8.26;100.00;94316.88;5030411;28;20237;-54
2023/01/22 01:24:55;;;;;;;5.27;3.47;;;;;;;8.28;100.00;94331.97;5047039;28;20198;-53
2023/01/22 01:27:20;;;;;;;3.47;2.97;;;;;;;8.30;100.00;94356.22;5031591;28;20622;-53
2023/01/22 01:29:45;;;;;;;5.13;3.50;;;;;;;8.31;100.00;94352.78;5031822;28;20194;-56
2023/01/22 01:32:11;;;;;;;5.73;3.73;;;;;;;8.33;100.00;94335.72;5031633;28;20189;-57
2023/01/22 01:34:36;;;;;;;4.70;3.20;;;;;;;8.35;100.00;94348.25;5029913;28;20617;-57
2023/01/22 01:37:02;;;;;;;4.83;3.40;;;;;;;8.47;100.00;94370.06;5029226;28;20194;-56
2023/01/22 01:39:27;;;;;;;5.40;3.03;;;;;;;8.54;100.00;94388.09;5029268;28;20214;-56
2023/01/22 01:41:52;;;;;;;5.43;3.37;;;;;;;8.50;100.00;94390.09;5029449;28;20352;-56
2023/01/22 01:44:21;;;;;;;6.00;3.40;;;;;;;8.53;100.00;94394.09;5029248;28;20218;-55
2023/01/22 01:46:51;;;;;;;4.77;3.13;;;;;;;8.38;100.00;94422.25;5029380;28;20205;-53
2023/01/22 01:49:27;;;;;;;4.17;3.30;;;;;;;8.39;100.00;94375.75;5031365;28;20198;-55
2023/01/22 01:51:59;;;;;;;6.57;3.53;;;;;;;8.50;100.00;94419.69;5031361;28;20185;-53
2023/01/22 01:54:25;;;;;;;5.63;3.20;;;;;;;8.56;100.00;94444.50;5030173;28;20206;-57
2023/01/22 01:56:56;;;;;;;4.00;2.93;;;;;;;8.43;100.00;94414.28;5030630;28;20190;-57
2023/01/22 01:59:22;;;;;;;6.67;4.67;;;;;;;7.98;100.00;94334.41;5031024;28;20224;-55
2023/01/22 02:01:52;;;;;;;10.10;5.57;;;;;;;7.77;100.00;94325.97;5030960;28;20276;-55
2023/01/22 02:04:18;;;;;;;7.80;5.03;;;;;;;7.57;100.00;94330.84;5030581;28;20687;-56
2023/01/22 02:06:44;;;;;;;9.80;5.50;;;;;;;7.32;100.00;94330.34;5030607;28;20194;-56
2023/01/22 02:09:10;;;;;;;7.93;5.30;;;;;;;7.29;100.00;94336.44;5029512;28;20209;-56
2023/01/22 02:11:39;;;;;;;9.50;5.57;;;;;;;7.44;100.00;94337.81;5046192;28;20225;-55
2023/01/22 02:14:13;;;;;;;7.33;4.93;;;;;;;7.59;100.00;94329.00;5030735;28;20216;-53
2023/01/22 02:16:38;;;;;;;10.37;6.33;;;;;;;7.78;100.00;94346.06;5030888;28;20305;-53
2023/01/22 02:19:04;;;;;;;9.17;5.40;;;;;;;7.86;100.00;94353.09;5038281;22;20249;-53
2023/01/22 02:21:35;;;;;;;11.90;6.40;;;;;;;7.97;100.00;94370.75;5031156;28;20186;-53
2023/01/22 02:24:12;;;;;;;9.07;5.93;;;;;;;7.97;100.00;94373.28;5031172;28;20225;-55
2023/01/22 02:26:38;;;;;;;12.07;6.27;;;;;;;7.96;100.00;94375.00;5031038;28;20197;-53
2023/01/22 02:29:09;;;;;;;9.87;6.10;;;;;;;8.05;100.00;94386.94;5030938;28;20240;-56
2023/01/22 02:31:36;;;;;;;9.27;5.80;;;;;;;8.01;100.00;94362.78;5030885;28;20189;-53
2023/01/22 02:34:02;;;;;;;9.90;6.27;;;;;;;8.04;100.00;94367.59;5031162;28;20302;-56
2023/01/22 02:36:32;;;;;;;11.90;6.47;;;;;;;8.10;100.00;94392.41;5046012;28;20237;-55
2023/01/22 02:38:58;;;;;;;8.30;5.33;;;;;;;8.04;100.00;94385.31;5031051;28;20288;-53
2023/01/22 02:41:24;;;;;;;7.70;5.47;;;;;;;8.12;100.00;94390.56;5029574;28;20247;-53
2023/01/22 02:43:50;;;;;;;10.13;6.43;;;;;;;8.12;100.00;94388.03;5030830;28;20324;-53
2023/01/22 02:46:16;;;;;;;8.43;6.10;;;;;;;7.94;100.00;94371.78;5030888;28;20263;-52
2023/01/22 02:48:41;;;;;;;10.63;6.90;;;;;;;7.83;100.00;94353.31;5030417;28;20230;-56
2023/01/22 02:51:07;;;;;;;13.20;6.60;;;;;;;7.81;100.00;94361.03;5033751;28;20194;-55
2023/01/22 02:53:32;;;;;;;9.80;6.97;;;;;;;7.75;100.00;94361.50;5034398;28;20305;-56
2023/01/22 02:55:57;;;;;;;14.07;7.03;;;;;;;7.67;100.00;94371.44;5034207;28;20186;-54
2023/01/22 02:58:23;;;;;;;9.73;6.43;;;;;;;7.78;100.00;94376.44;5032729;28;20214;-57
2023/01/22 03:00:48;;;;;;;10.80;5.77;;;;;;;7.76;100.00;94388.41;5034346;28;20232;-54
2023/01/22 03:03:17;;;;;;;8.37;5.07;;;;;;;7.64;100.00;94369.13;5034099;28;20218;-53
2023/01/22 03:05:52;;;;;;;6.33;5.20;;;;;;;7.70;100.00;94372.88;5033795;28;20240;-52
2023/01/22 03:08:18;;;;;;;7.47;4.83;;;;;;;7.87;100.00;94408.63;5033783;28;20237;-54
2023/01/22 03:21:42;;;;;;;5.97;4.07;;;;;;;7.88;100.00;94397.56;5034165;28;20252;-57
2023/01/22 03:24:08;;;;;;;6.17;4.30;;;;;;;7.84;100.00;94381.03;5033760;28;20214;-56
2023/01/22 03:26:34;;;;;;;6.47;3.33;;;;;;;7.91;100.00;94439.56;5033706;28;20210;-55
2023/01/22 03:29:00;;;;;;;5.20;2.90;;;;;;;7.74;100.00;94452.72;5033606;28;20260;-55
2023/01/22 03:31:25;;;;;;;4.77;3.03;;;;;;;7.58;100.00;94415.13;5033594;28;20269;-55
2023/01/22 03:33:51;;;;;;;2.67;2.30;;;;;;;7.58;100.00;94383.06;5033358;28;20729;-55
2023/01/22 03:36:16;;;;;;;2.83;2.47;;;;;;;7.56;100.00;94379.03;5033625;28;20190;-53
2023/01/22 03:38:42;;;;;;;8.07;3.40;;;;;;;7.68;100.00;94400.03;5033236;28;20218;-53
2023/01/22 03:41:11;;;;;;;3.83;2.80;;;;;;;7.72;100.00;94421.63;5033415;28;20277;-53
2023/01/22 03:43:37;;;;;;;8.63;3.20;;;;;;;7.54;100.00;94406.97;5033666;28;20214;-52
2023/01/22 03:46:09;;;;;;;6.30;2.83;;;;;;;7.42;100.00;94397.81;5033346;28;20280;-57
2023/01/22 03:48:35;;;;;;;3.90;2.90;;;;;;;7.24;100.00;94375.63;5033374;28;20234;-52
2023/01/22 03:51:05;;;;;;;5.73;2.97;;;;;;;7.16;100.00;94371.19;5033267;28;20534;-54
2023/01/22 03:53:31;;;;;;;3.60;2.63;;;;;;;7.22;100.00;94368.19;5033323;28;20214;-54
2023/01/22 03:55:58;;;;;;;3.73;2.80;;;;;;;7.27;100.00;94372.91;5033150;28;20202;-53
2023/01/22 03:58:24;;;;;;;4.43;2.67;;;;;;;7.28;100.00;94382.06;5033375;28;20213;-58
2023/01/22 04:00:49;;;;;;;5.33;2.97;;;;;;;7.31;100.00;94379.31;5032965;28;20283;-54
2023/01/22 04:03:15;;;;;;;5.37;2.67;;;;;;;7.32;100.00;94388.50;5033411;28;20313;-53
2023/01/22 04:05:40;;;;;;;3.87;2.93;;;;;;;7.28;100.00;94387.13;5048294;28;20194;-53
2023/01/22 04:08:06;;;;;;;4.63;2.63;;;;;;;7.28;100.00;94390.47;5033145;28;20228;-58
2023/01/22 04:10:31;;;;;;;7.07;3.17;;;;;;;7.27;100.00;94398.97;5033362;28;20247;-54
2023/01/22 04:12:56;;;;;;;3.77;3.10;;;;;;;7.20;100.00;94384.38;5033105;28;20217;-53
2023/01/22 04:15:22;;;;;;;5.63;3.00;;;;;;;7.25;100.00;94392.44;5032808;28;20250;-54
2023/01/22 04:17:47;;;;;;;4.20;3.37;;;;;;;7.32;100.00;94393.56;5033106;28;20227;-57
2023/01/22 04:20:13;;;;;;;7.40;3.30;;;;;;;7.40;100.00;94406.41;5032756;28;20178;-56
2023/01/22 04:22:38;;;;;;;5.73;3.27;;;;;;;7.34;100.00;94405.16;5032873;28;20303;-54
2023/01/22 04:25:04;;;;;;;4.60;3.37;;;;;;;7.35;100.00;94400.91;5032699;28;20205;-53
2023/01/22 04:27:29;;;;;;;9.23;4.80;;;;;;;7.28;100.00;94387.13;5032662;28;20218;-55
2023/01/22 04:29:55;;;;;;;4.33;3.20;;;;;;;7.39;100.00;94420.78;5032782;28;20357;-57
2023/01/22 04:32:20;;;;;;;6.90;2.97;;;;;;;7.34;100.00;94417.81;5032621;28;20239;-55
2023/01/22 04:34:46;;;;;;;6.37;3.70;;;;;;;7.39;100.00;94425.06;5032708;28;20186;-57
2023/01/22 04:37:12;;;;;;;8.03;3.60;;;;;;;7.38;100.00;94424.25;5032319;28;20545;-58
2023/01/22 04:39:37;;;;;;;9.40;3.70;;;;;;;7.28;100.00;94422.53;5032605;28;20231;-57
2023/01/22 04:42:03;;;;;;;6.77;3.60;;;;;;;7.23;100.00;94410.22;5032468;28;20190;-56
2023/01/22 04:44:28;;;;;;;6.33;3.50;;;;;;;7.26;100.00;94437.81;5032641;28;20209;-55
2023/01/22 04:46:53;;;;;;;4.03;3.10;;;;;;;7.27;100.00;94439.41;5032265;28;20194;-55
2023/01/22 04:49:19;;;;;;;7.33;3.07;;;;;;;7.27;100.00;94441.16;5032769;28;20260;-56
2023/01/22 04:51:44;;;;;;;7.33;4.70;;;;;;;7.23;100.00;94444.81;5031131;28;20200;-58
2023/01/22 04:54:10;;;;;;;5.67;2.80;;;;;;;7.27;100.00;94447.00;5032650;28;20419;-53
2023/01/22 04:56:36;;;;;;;4.57;2.80;;;;;;;7.32;100.00;94452.50;5031015;28;20221;-55
2023/01/22 04:59:01;;;;;;;5.60;3.20;;;;;;;7.37;100.00;94475.72;5032000;28;20229;-55
2023/01/22 05:01:26;;;;;;;4.07;2.80;;;;;;;7.47;100.00;94476.63;5032180;28;20198;-56
2023/01/22 05:03:52;;;;;;;5.77;2.73;;;;;;;7.44;100.00;94493.78;5047558;28;20221;-56
2023/01/22 05:06:17;;;;;;;2.93;2.63;;;;;;;7.44;100.00;94519.06;5032155;28;20663;-55
2023/01/22 05:08:43;;;;;;;4.17;3.13;;;;;;;7.44;100.00;94529.97;5032064;28;20648;-53
2023/01/22 05:11:09;;;;;;;4.93;2.67;;;;;;;7.36;100.00;94524.69;5032049;28;20197;-55
2023/01/22 05:13:34;;;;;;;3.63;2.60;;;;;;;7.37;100.00;94523.75;5031101;28;20218;-55
2023/01/22 05:16:00;;;;;;;4.90;2.83;;;;;;;7.41;100.00;94506.66;5031975;28;20194;-56
2023/01/22 05:18:25;;;;;;;6.23;2.70;;;;;;;7.51;100.00;94545.50;5031946;28;20241;-56
2023/01/22 05:20:50;;;;;;;4.83;2.40;;;;;;;7.52;100.00;94539.53;5031700;28;20194;-56
2023/01/22 05:23:16;;;;;;;3.57;2.60;;;;;;;7.48;100.00;94518.72;5031602;28;20214;-53
2023/01/22 05:25:46;;;;;;;4.73;2.70;;;;;;;7.52;100.00;94530.22;5030640;28;20214;-54
2023/01/22 05:28:12;;;;;;;2.67;2.43;;;;;;;7.60;100.00;94539.75;5030490;28;20218;-57
2023/01/22 05:30:37;;;;;;;2.93;2.47;;;;;;;7.59;100.00;94526.28;5045889;28;20328;-58
2023/01/22 05:33:03;;;;;;;4.47;2.93;;;;;;;7.65;100.00;94533.41;5045886;28;20309;-52
2023/01/22 05:35:28;;;;;;;2.90;2.57;;;;;;;7.70;100.00;94542.38;5031687;28;20278;-53
2023/01/22 05:37:55;;;;;;;5.33;2.73;;;;;;;7.57;100.00;94525.59;5031606;28;20672;-55
2023/01/22 05:40:20;;;;;;;2.83;2.50;;;;;;;7.60;100.00;94548.16;5031363;28;20186;-53
2023/01/22 05:42:46;;;;;;;3.83;2.83;;;;;;;7.42;100.00;94531.81;5031546;28;20217;-57
2023/01/22 05:45:11;;;;;;;5.83;2.70;;;;;;;7.44;100.00;94540.09;5030215;28;20260;-54
2023/01/22 05:47:37;;;;;;;4.77;2.87;;;;;;;7.36;100.00;94527.22;5031234;28;20749;-54
2023/01/22 05:50:02;;;;;;;7.30;3.30;;;;;;;7.25;100.00;94524.66;5031669;28;20182;-58
2023/01/22 05:52:28;;;;;;;4.70;3.53;;;;;;;7.27;100.00;94529.63;5031205;28;20217;-53
2023/01/22 05:54:53;;;;;;;5.27;2.77;;;;;;;7.40;100.00;94525.25;5031262;28;20198;-53
2023/01/22 05:57:18;;;;;;;6.33;3.50;;;;;;;7.56;100.00;94564.47;5046330;28;20292;-55
2023/01/22 05:59:44;;;;;;;3.33;2.93;;;;;;;7.53;100.00;94566.44;5031159;28;21128;-59
2023/01/22 06:02:09;;;;;;;6.47;4.17;;;;;;;7.61;100.00;94576.78;5046314;28;20190;-57
2023/01/22 06:04:35;;;;;;;4.77;3.30;;;;;;;7.79;100.00;94588.06;5029947;28;20190;-56
2023/01/22 06:07:00;;;;;;;5.67;3.63;;;;;;;7.85;100.00;94574.94;5031013;28;20185;-57
2023/01/22 06:09:25;;;;;;;6.00;3.90;;;;;;;7.94;100.00;94606.34;5031099;28;20220;-57
2023/01/22 06:11:57;;;;;;;5.07;3.50;;;;;;;7.84;100.00;94593.56;5031091;28;20205;-57
2023/01/22 06:14:23;;;;;;;7.20;3.90;;;;;;;7.81;100.00;94583.69;5029945;28;20206;-56
2023/01/22 06:16:48;;;;;;;5.43;4.00;;;;;;;7.87;100.00;94569.78;5030978;28;20682;-57
2023/01/22 06:19:14;;;;;;;8.07;4.47;;;;;;;7.97;100.00;94579.09;5031339;28;20642;-56
2023/01/22 06:21:42;;;;;;;6.17;4.17;;;;;;;8.07;100.00;94620.50;5030925;28;20186;-53
2023/01/22 06:24:07;;;;;;;6.40;4.17;;;;;;;7.93;100.00;94597.16;5029918;28;20348;-53
2023/01/22 06:26:33;;;;;;;6.33;3.93;;;;;;;7.90;100.00;94602.44;5031083;28;20212;-54
2023/01/22 06:28:58;;;;;;;6.33;4.27;;;;;;;7.73;100.00;94570.81;5030883;28;20710;-55
2023/01/22 06:31:24;;;;;;;6.70;4.83;;;;;;;7.76;100.00;94590.81;5030979;28;20648;-53
2023/01/22 06:33:49;;;;;;;4.87;3.80;;;;;;;7.90;100.00;94612.56;5030860;28;20288;-57
2023/01/22 06:36:15;;;;;;;5.50;4.27;;;;;;;7.82;100.00;94576.91;5030757;28;20721;-57
2023/01/22 06:38:42;;;;;;;6.93;4.37;;;;;;;7.68;100.00;94565.28;5030709;28;20302;-54
2023/01/22 06:41:08;;;;;;;8.17;4.50;;;;;;;7.83;100.00;94589.44;5030894;28;20220;-52
2023/01/22 06:43:36;;;;;;;5.77;4.07;;;;;;;7.88;100.00;94622.00;5030889;28;20214;-55
2023/01/22 06:46:02;;;;;;;4.73;3.40;;;;;;;7.95;100.00;94668.69;5030586;28;20192;-53
2023/01/22 06:48:28;;;;;;;5.60;3.63;;;;;;;7.63;100.00;94650.84;5030684;28;20222;-53
2023/01/22 06:51:00;;;;;;;7.77;4.60;;;;;;;7.63;100.00;94661.75;5030601;28;20273;-58
2023/01/22 06:53:26;;;;;;;7.00;3.97;;;;;;;7.54;100.00;94659.09;5030809;28;20271;-57
2023/01/22 06:55:51;;;;;;;10.47;3.97;;;;;;;7.28;100.00;94623.06;5030564;28;20190;-56
2023/01/22 06:58:17;;;;;;;7.63;4.97;;;;;;;7.26;100.00;94608.91;5030479;28;20216;-53
2023/01/22 07:00:42;;;;;;;7.00;4.60;;;;;;;7.15;100.00;94598.78;5030668;28;20189;-53
2023/01/22 07:03:08;;;;;;;8.83;4.93;;;;;;;7.05;100.00;94600.34;5030753;28;20272;-53
2023/01/22 07:05:34;;;;;;;9.87;5.90;;;;;;;7.24;100.00;94614.06;5030674;28;20571;-53
2023/01/22 07:08:00;;;;;;;13.33;7.50;;;;;;;7.16;100.00;94600.38;5045704;28;20238;-55
2023/01/22 07:10:26;;;;;;;10.17;7.47;;;;;;;7.13;100.00;94610.72;5030426;28;20224;-52
2023/01/22 07:12:57;;;;;;;12.60;7.53;;;;;;;7.10;100.00;94615.97;5030427;28;20622;-52
2023/01/22 07:15:22;;;;;;;13.97;8.60;;;;;;;6.94;100.00;94618.81;5030170;28;20257;-53
2023/01/22 07:17:52;;;;;;;12.37;7.77;;;;;;;6.92;100.00;94613.06;5030619;28;20345;-53
2023/01/22 07:20:19;;;;;;;11.03;7.70;;;;;;;7.08;100.00;94623.69;5030411;28;20187;-57
2023/01/22 07:22:45;;;;;;;13.67;9.23;;;;;;;7.13;100.00;94631.72;5030146;28;20229;-52
2023/01/22 07:25:11;;;;;;;13.10;8.10;;;;;;;7.19;100.00;94618.66;5030208;28;20182;-55
2023/01/22 07:27:37;;;;;;;13.20;9.00;;;;;;;7.39;100.00;94634.94;5030374;28;20613;-53
2023/01/22 07:30:04;;;;;;;16.10;8.47;;;;;;;7.36;100.00;94633.41;5030419;28;20265;-53
2023/01/22 07:32:29;;;;;;;12.63;8.63;;;;;;;7.28;100.00;94634.88;5030263;28;20210;-54
2023/01/22 07:34:54;;;;;;;16.23;9.20;;;;;;;7.37;100.00;94641.81;5030201;28;20721;-53
2023/01/22 07:37:20;;;;;;;13.00;9.50;;;;;;;7.30;100.00;94630.53;5033524;28;20214;-57
2023/01/22 07:39:45;;;;;;;17.73;9.63;;;;;;;7.24;100.00;94631.78;5033444;28;20236;-57
2023/01/22 07:42:12;;;;;;;14.03;9.17;;;;;;;7.22;100.00;94628.56;5033419;28;20182;-55
2023/01/22 07:44:40;;;;;;;12.67;9.07;;;;;;;7.13;100.00;94636.78;5033316;28;20199;-56
2023/01/22 07:47:06;;;;;;;14.10;8.73;;;;;;;7.23;100.00;94647.06;5033058;28;20205;-57
2023/01/22 07:49:31;;;;;;;18.97;10.93;;;;;;;7.34;100.00;94639.50;5033099;28;20612;-57
2023/01/22 07:51:57;;;;;;;13.77;9.47;;;;;;;7.52;100.00;94644.03;5032409;28;20679;-54
2023/01/22 07:54:22;;;;;;;14.63;9.77;;;;;;;7.69;100.00;94647.84;5033123;28;20213;-56
2023/01/22 07:56:48;;;;;;;14.20;8.43;;;;;;;7.84;100.00;94664.44;5033153;28;20189;-53
2023/01/22 07:59:14;;;;;;;14.57;8.73;;;;;;;7.96;100.00;94660.97;5033085;28;20213;-58
2023/01/22 08:01:39;;;;;;;15.53;8.37;;;;;;;8.01;100.00;94674.13;5033171;28;20227;-57
2023/01/22 08:04:05;;;;;;;13.93;8.90;;;;;;;7.97;100.00;94682.88;5033688;28;20213;-58
2023/01/22 08:06:31;;;;;;;11.33;8.43;;;;;;;8.11;100.00;94682.63;5033164;28;20182;-54
2023/01/22 08:08:58;;;;;;;12.30;8.30;;;;;;;8.34;100.00;94688.56;5032899;28;20213;-57
2023/01/22 08:11:25;;;;;;;14.67;8.87;;;;;;;8.50;100.00;94708.44;5032980;28;20263;-54
2023/01/22 08:13:50;;;;;;;13.37;8.63;;;;;;;8.68;100.00;94722.25;5033340;28;20209;-57
2023/01/22 08:16:15;;;;;;;13.13;8.33;;;;;;;8.79;100.00;94722.22;5031858;28;20256;-53
2023/01/22 08:18:41;;;;;;;13.50;9.30;;;;;;;8.92;100.00;94721.19;5033069;28;20222;-52
2023/01/22 08:21:06;;;;;;;13.07;9.00;;;;;;;8.94;100.00;94708.38;5032747;28;20179;-53
2023/01/22 08:23:32;;;;;;;12.70;8.57;;;;;;;9.00;100.00;94721.41;5031438;28;20202;-55
2023/01/22 08:26:02;;;;;;;12.03;8.33;;;;;;;9.24;100.00;94741.50;5032627;28;20561;-54
2023/01/22 08:28:28;;;;;;;17.27;11.07;;;;;;;9.24;100.00;94751.66;5032182;28;20297;-54
2023/01/22 08:30:59;;;;;;;21.10;14.90;;;;;;;9.05;100.00;94731.19;5032682;28;20193;-53
2023/01/22 08:33:25;;;;;;;24.60;17.40;;;;;;;9.00;100.00;94703.66;5032760;28;20316;-53
2023/01/22 08:35:51;;;;;;;27.50;17.80;;;;;;;8.91;100.00;94696.75;5032541;28;20195;-54
2023/01/22 08:38:16;;;;;;;25.10;18.07;;;;;;;9.00;100.00;94700.31;5032150;28;20589;-53
2023/01/22 08:40:42;;;;;;;26.50;17.83;;;;;;;8.97;100.00;94715.75;5030679;28;20189;-53
2023/01/22 08:43:07;;;;;;;25.83;16.87;;;;;;;8.82;100.00;94691.59;5032102;28;20679;-54
2023/01/22 08:45:33;;;;;;;27.13;16.90;;;;;;;8.93;100.00;94691.56;5047370;28;20186;-52
2023/01/22 08:47:59;;;;;;;24.70;14.87;;;;;;;8.86;100.00;94680.28;5029604;28;20305;-56
2023/01/22 08:50:27;;;;;;;27.87;17.00;;;;;;;8.74;100.00;94688.84;5046482;28;20588;-55
2023/01/22 08:52:56;;;;;;;26.67;18.17;;;;;;;8.65;100.00;94656.59;5033670;28;20347;-53
2023/01/22 08:55:21;;;;;;;28.40;19.03;;;;;;;8.99;100.00;94711.34;5032362;28;20183;-53
2023/01/22 08:57:52;;;;;;;31.20;18.53;;;;;;;9.11;100.00;94711.22;5032526;28;20229;-53
2023/01/22 09:00:18;;;;;;;31.90;18.77;;;;;;;9.13;100.00;94698.44;5032460;28;20187;-52
2023/01/22 09:02:44;;;;;;;29.13;17.53;;;;;;;9.15;100.00;94727.81;5032268;28;20210;-54
2023/01/22 09:05:09;;;;;;;29.33;18.40;;;;;;;9.17;100.00;94720.88;5032350;28;20182;-55
2023/01/22 09:07:35;;;;;;;33.07;17.23;;;;;;;9.35;100.00;94726.25;5031978;28;20307;-53
2023/01/22 09:10:01;;;;;;;28.33;18.30;;;;;;;9.19;100.00;94698.75;5031954;28;20179;-56
2023/01/22 09:12:26;;;;;;;30.30;18.00;;;;;;;9.43;100.00;94711.25;5031862;28;20805;-54
2023/01/22 09:14:52;;;;;;;27.20;18.63;;;;;;;9.42;100.00;94714.69;5031980;28;20281;-57
2023/01/22 09:17:17;;;;;;;27.03;17.83;;;;;;;9.52;100.00;94735.88;5031789;28;20579;-58
2023/01/22 09:19:43;;;;;;;25.73;15.90;;;;;;;9.58;100.00;94758.22;5031865;28;20178;-59
2023/01/22 09:22:08;;;;;;;23.67;14.77;;;;;;;9.34;100.00;94742.41;5031789;28;20186;-58
2023/01/22 09:24:33;;;;;;;22.80;14.43;;;;;;;9.19;100.00;94703.03;5031820;28;20269;-54
2023/01/22 09:26:59;;;;;;;25.10;13.47;;;;;;;9.21;100.00;94716.41;5031507;28;20551;-54
2023/01/22 09:29:24;;;;;;;18.23;12.17;;;;;;;9.10;100.00;94699.47;5046994;28;20268;-57
2023/01/22 09:31:50;;;;;;;16.90;11.70;;;;;;;9.13;100.00;94706.03;5031848;28;20215;-53
2023/01/22 09:34:15;;;;;;;21.07;12.70;;;;;;;9.26;100.00;94694.00;5031424;28;20220;-53
2023/01/22 09:36:42;;;;;;;20.50;11.90;;;;;;;9.40;100.00;94708.13;5029935;28;20595;-54
2023/01/22 09:39:08;;;;;;;18.33;11.57;;;;;;;9.58;100.00;94724.41;5029930;28;20218;-54
2023/01/22 09:41:38;;;;;;;16.53;11.27;;;;;;;9.67;100.00;94724.50;5031403;28;20183;-55
2023/01/22 09:44:26;;;;;;;22.23;11.73;;;;;;;9.75;100.00;94681.56;5031960;28;20202;-58
2023/01/22 09:46:56;;;;;;;23.10;11.90;;;;;;;10.03;100.00;94692.78;5031163;28;20556;-56
2023/01/22 09:49:36;;;;;;;22.77;13.23;;;;;;;10.21;100.00;94715.91;5046528;28;20206;-59
2023/01/22 09:52:03;;;;;;;18.27;12.77;;;;;;;10.25;100.00;94728.25;5031185;28;20186;-56
2023/01/22 09:54:29;;;;;;;19.70;13.07;;;;;;;10.36;100.00;94723.09;5031096;28;20585;-53
2023/01/22 09:56:58;;;;;;;21.67;14.37;;;;;;;10.38;100.00;94745.81;5030994;28;20182;-53
2023/01/22 09:59:35;;;;;;;22.67;13.37;;;;;;;10.46;100.00;94763.78;5030765;28;20233;-56
2023/01/22 10:02:18;;;;;;;17.70;12.10;;;;;;;10.42;100.00;94726.84;5030806;28;20182;-56
2023/01/22 10:04:45;;;;;;;25.73;13.57;;;;;;;10.42;100.00;94750.53;5031071;28;20227;-58
2023/01/22 10:07:24;;;;;;;22.03;13.90;;;;;;;10.44;100.00;94750.41;5029834;28;20228;-57
2023/01/22 10:09:55;;;;;;;19.07;13.37;;;;;;;10.50;100.00;94742.28;5030349;28;20648;-54
2023/01/22 10:12:21;;;;;;;26.13;12.20;;;;;;;10.37;100.00;94726.41;5030389;28;20194;-57
2023/01/22 10:14:46;;;;;;;29.50;12.70;;;;;;;10.42;100.00;94737.81;5029212;28;20244;-53
2023/01/22 10:17:22;;;;;;;20.00;12.70;;;;;;;10.65;100.00;94731.63;5030194;28;20190;-54
2023/01/22 10:20:02;;;;;;;20.47;12.10;;;;;;;10.76;100.00;94743.44;5030048;28;20282;-58
2023/01/22 10:22:27;;;;;;;19.57;12.10;;;;;;;10.75;100.00;94741.81;5030707;28;20225;-54
2023/01/22 10:24:54;;;;;;;19.33;11.80;;;;;;;10.78;100.00;94739.03;5030724;28;20189;-52
2023/01/22 10:27:34;;;;;;;22.63;12.30;;;;;;;10.76;100.00;94743.44;5031007;28;20229;-57
2023/01/22 10:30:28;;;;;;;21.23;11.20;;;;;;;10.80;100.00;94734.63;5029766;28;20186;-56
2023/01/22 10:32:59;;;;;;;15.70;11.07;;;;;;;10.76;100.00;94746.81;5028575;28;20214;-56
2023/01/22 10:35:26;;;;;;;16.83;11.37;;;;;;;10.62;100.00;94714.09;5028805;28;20608;-54
2023/01/22 10:38:00;;;;;;;27.90;13.63;;;;;;;10.85;100.00;94758.72;5028899;28;20260;-58
2023/01/22 10:40:36;;;;;;;21.13;13.13;;;;;;;10.79;100.00;94740.63;5029216;28;21205;-57
2023/01/22 10:43:11;;;;;;;17.17;11.93;;;;;;;10.87;100.00;94763.66;5029299;28;20590;-54
2023/01/22 10:45:38;;;;;;;19.50;12.27;;;;;;;10.86;100.00;94750.19;5028973;28;20220;-56
2023/01/22 10:48:16;;;;;;;15.13;10.53;;;;;;;10.86;100.00;94741.72;5029950;28;20218;-54
2023/01/22 10:50:44;;;;;;;18.73;11.37;;;;;;;10.98;100.00;94743.25;5028638;28;20197;-54
2023/01/22 10:53:19;;;;;;;31.80;12.33;;;;;;;11.04;100.00;94739.38;5030105;28;20210;-57
2023/01/22 10:55:56;;;;;;;18.90;12.50;;;;;;;10.98;100.00;94710.19;5030198;28;20264;-57
2023/01/22 10:58:26;;;;;;;23.33;13.63;;;;;;;11.00;100.00;94718.47;5030396;28;20210;-54
2023/01/22 11:00:57;;;;;;;21.00;12.47;;;;;;;11.32;100.00;94784.41;5030414;28;20190;-54
2023/01/22 11:03:30;;;;;;;21.60;13.20;;;;;;;11.30;100.00;94782.00;5030184;28;20692;-54
2023/01/22 11:06:01;;;;;;;23.10;13.63;;;;;;;11.66;100.00;94819.63;5028994;28;20273;-53
2023/01/22 11:08:32;;;;;;;23.33;14.33;;;;;;;11.89;100.00;94827.81;5045291;28;20222;-58
2023/01/22 11:11:06;;;;;;;25.00;15.13;;;;;;;12.00;100.00;94834.53;5046738;28;20194;-54
2023/01/22 11:14:13;;;;;;;24.57;14.13;;;;;;;12.47;100.00;94856.63;5032621;28;20527;-56
2023/01/22 11:16:41;;;;;;;25.27;14.43;;;;;;;13.54;100.00;94914.91;5030382;28;20680;-59
2023/01/22 11:19:15;;;;;;;23.37;14.10;;;;;;;13.86;100.00;94962.09;5033558;28;20280;-55
2023/01/22 11:21:52;;;;;;;30.20;15.13;;;;;;;14.20;100.00;94963.13;5033447;28;20189;-56
2023/01/22 11:24:29;;;;;;;31.27;14.93;;;;;;;14.75;100.00;94981.75;5033292;28;20587;-53
2023/01/22 11:27:13;;;;;;;24.80;14.00;;;;;;;14.96;100.00;94938.75;5033506;28;20197;-54
2023/01/22 11:29:56;;;;;;;23.20;9.90;;;;;;;15.10;100.00;95012.47;5033357;28;20676;-54
2023/01/22 11:33:09;;;;;;;10.07;5.97;;;;;;;15.20;100.00;95078.16;5033613;28;20226;-56
2023/01/22 11:35:49;;;;;;;6.97;4.55;;;;;;;15.77;100.00;95093.84;4972321;28;20196;-55
2023/01/22 11:38:30;;;;;;;9.25;5.38;;;;;;;15.55;100.00;95085.84;4972143;28;20227;-58
2023/01/22 11:41:19;;;;;;;10.13;5.38;;;;;;;15.24;100.00;95046.97;5012818;28;20751;-58
2023/01/22 11:44:06;;;;;;;8.43;5.17;;;;;;;14.86;100.00;95035.28;5048581;28;20260;-56